Time;durP1;ratioP1;P1;durP2;ratioP2;P2;SDS_P1;SDS_P2;PMS_P1;PMS_P2;Temp;Humidity;BMP_temperature;BMP_pressure;BME280_temperature;BME280_humidity;BME280_pressure;Samples;Min_cycle;Max_cycle;Signal;HPM_P1;HPM_P2
2020/12/06 00:01:44;;;;;;;10.32;6.78;;;;;;;2.59;83.68;97631.94;2059927;78;20385;-70
2020/12/06 00:04:46;;;;;;;9.66;6.95;;;;;;;2.59;83.67;97639.63;2059729;78;20311;-70
2020/12/06 00:07:48;;;;;;;8.59;6.79;;;;;;;2.56;83.60;97637.91;2059437;78;21317;-70
2020/12/06 00:10:49;;;;;;;10.68;7.16;;;;;;;2.57;83.72;97625.97;2059397;78;20886;-70
2020/12/06 00:13:51;;;;;;;8.46;7.20;;;;;;;2.60;83.89;97638.75;2058388;78;20335;-70
2020/12/06 00:16:53;;;;;;;9.10;7.39;;;;;;;2.63;83.92;97625.94;2058172;78;20304;-70
2020/12/06 00:19:54;;;;;;;9.93;7.70;;;;;;;2.66;83.97;97623.38;2056815;78;20387;-71
2020/12/06 00:22:56;;;;;;;7.82;6.94;;;;;;;2.67;83.91;97628.50;2057240;78;20334;-70
2020/12/06 00:25:58;;;;;;;8.91;7.22;;;;;;;2.68;83.94;97632.75;2057710;78;20341;-70
2020/12/06 00:28:59;;;;;;;9.64;6.84;;;;;;;2.71;83.93;97640.47;2056816;78;20340;-70
2020/12/06 00:32:01;;;;;;;8.48;7.21;;;;;;;2.71;84.05;97624.25;2057519;78;20332;-71
2020/12/06 00:35:21;;;;;;;7.65;6.88;;;;;;;2.75;84.01;97614.84;2055180;68;20467;-78
2020/12/06 00:38:23;;;;;;;10.93;7.99;;;;;;;2.75;84.01;97600.31;2020339;80;21120;-79
2020/12/06 00:41:24;;;;;;;8.43;7.22;;;;;;;2.75;83.95;97594.34;2020452;80;20393;-78
2020/12/06 00:44:26;;;;;;;9.39;7.61;;;;;;;2.76;83.93;97604.56;2020382;80;20354;-78
2020/12/06 00:47:27;;;;;;;9.10;7.39;;;;;;;2.77;83.97;97603.72;2020614;80;21023;-78
2020/12/06 00:50:29;;;;;;;10.60;7.94;;;;;;;2.78;83.94;97620.78;2020197;80;20441;-78
2020/12/06 00:53:31;;;;;;;8.51;6.89;;;;;;;2.79;83.96;97658.38;2020235;80;20451;-78
2020/12/06 00:56:33;;;;;;;9.56;7.26;;;;;;;2.78;83.92;97656.69;2020574;80;21329;-78
2020/12/06 00:59:34;;;;;;;8.50;7.19;;;;;;;2.79;83.86;97643.00;2020545;80;20345;-81
2020/12/06 01:02:36;;;;;;;8.19;7.21;;;;;;;2.80;83.86;97656.66;2020288;80;20341;-77
2020/12/06 01:05:38;;;;;;;8.48;7.09;;;;;;;2.80;83.87;97664.34;2019556;80;20427;-78
2020/12/06 01:08:40;;;;;;;7.44;6.64;;;;;;;2.78;83.86;97666.94;2020183;80;20369;-78
2020/12/06 01:11:47;;;;;;;9.76;7.18;;;;;;;2.80;83.92;97679.72;2020356;80;20363;-78
2020/12/06 01:14:49;;;;;;;9.07;7.16;;;;;;;2.81;83.87;97671.19;2019938;80;20304;-78
2020/12/06 01:17:50;;;;;;;10.14;7.95;;;;;;;2.82;83.87;97668.63;2019467;80;21114;-78
2020/12/06 01:20:52;;;;;;;8.88;7.64;;;;;;;2.81;83.91;97674.59;2020837;80;20359;-78
2020/12/06 01:23:53;;;;;;;8.84;7.81;;;;;;;2.84;83.90;97673.75;2019665;80;20320;-78
2020/12/06 01:26:55;;;;;;;11.84;7.93;;;;;;;2.83;83.89;97665.19;2019901;80;20334;-78
2020/12/06 01:29:57;;;;;;;10.73;8.05;;;;;;;2.83;83.92;97654.09;2020136;80;20349;-78
2020/12/06 01:32:58;;;;;;;9.75;7.93;;;;;;;2.85;83.93;97639.56;2019970;80;20324;-78
2020/12/06 01:36:00;;;;;;;9.61;7.57;;;;;;;2.85;83.86;97648.09;2019557;80;21052;-79
2020/12/06 01:39:03;;;;;;;9.11;7.38;;;;;;;2.86;83.91;97631.00;2020100;80;20500;-79
2020/12/06 01:42:05;;;;;;;10.06;8.16;;;;;;;2.86;83.86;97649.81;2019300;80;20328;-78
2020/12/06 01:45:06;;;;;;;8.10;6.91;;;;;;;2.87;83.86;97663.47;2019987;80;20335;-78
2020/12/06 01:48:09;;;;;;;9.27;8.14;;;;;;;2.87;83.77;97664.38;2020196;80;20311;-78
2020/12/06 01:51:11;;;;;;;8.46;7.53;;;;;;;2.87;83.72;97677.19;2019371;80;20344;-78
2020/12/06 01:54:13;;;;;;;9.20;7.68;;;;;;;2.86;83.73;97679.72;2020171;80;21366;-78
2020/12/06 01:57:14;;;;;;;10.25;8.40;;;;;;;2.86;83.73;97688.25;2020944;80;20356;-78
2020/12/06 02:00:16;;;;;;;9.68;7.53;;;;;;;2.86;83.77;97703.63;2019606;80;21305;-78
2020/12/06 02:03:18;;;;;;;10.15;7.82;;;;;;;2.84;83.78;97701.94;2020336;80;20777;-78
2020/12/06 02:06:19;;;;;;;8.55;7.60;;;;;;;2.85;83.77;97693.38;2020165;80;20716;-78
2020/12/06 02:09:22;;;;;;;10.34;7.75;;;;;;;2.85;83.78;97676.31;2019406;80;20347;-78
2020/12/06 02:12:23;;;;;;;10.34;8.04;;;;;;;2.87;83.76;97666.03;2019776;80;20315;-78
2020/12/06 02:15:25;;;;;;;9.06;7.49;;;;;;;2.87;83.74;97661.81;2019846;80;20392;-78
2020/12/06 02:18:27;;;;;;;10.07;7.85;;;;;;;2.86;83.83;97672.88;2019860;80;20342;-78
2020/12/06 02:21:28;;;;;;;10.51;7.86;;;;;;;2.86;83.81;97666.91;2019597;80;20713;-78
2020/12/06 02:24:30;;;;;;;8.74;7.72;;;;;;;2.87;83.83;97663.47;2016807;80;20320;-78
2020/12/06 02:27:31;;;;;;;10.95;8.56;;;;;;;2.88;83.87;97660.09;2020144;80;20377;-78
2020/12/06 02:30:34;;;;;;;10.54;8.49;;;;;;;2.89;83.82;97654.97;2020411;80;20315;-78
2020/12/06 02:33:36;;;;;;;8.90;7.59;;;;;;;2.88;83.77;97655.81;2020808;80;21114;-78
2020/12/06 02:36:38;;;;;;;9.26;7.85;;;;;;;2.88;83.77;97637.88;2019531;80;20338;-78
2020/12/06 02:39:40;;;;;;;9.57;8.56;;;;;;;2.88;83.76;97643.00;2019658;80;20377;-78
2020/12/06 02:42:42;;;;;;;9.69;7.95;;;;;;;2.87;83.67;97638.72;2020677;80;21217;-78
2020/12/06 02:45:44;;;;;;;9.49;8.06;;;;;;;2.85;83.82;97640.41;2019781;80;20324;-78
2020/12/06 02:48:45;;;;;;;10.94;9.15;;;;;;;2.85;83.85;97648.09;2020609;80;20311;-78
2020/12/06 02:51:47;;;;;;;11.98;8.13;;;;;;;2.87;83.81;97664.38;2020222;80;20357;-78
2020/12/06 02:54:48;;;;;;;8.82;7.80;;;;;;;2.87;83.80;97641.28;2019832;80;21061;-78
2020/12/06 02:57:50;;;;;;;10.38;8.55;;;;;;;2.85;83.80;97645.53;2020316;80;20328;-79
2020/12/06 03:00:52;;;;;;;11.40;9.09;;;;;;;2.85;83.80;97629.31;2020320;80;20359;-78
2020/12/06 03:03:53;;;;;;;10.48;8.19;;;;;;;2.80;84.08;97629.34;2021390;80;20429;-78
2020/12/06 03:06:55;;;;;;;10.79;8.66;;;;;;;2.82;84.30;97627.63;2021728;80;20296;-78
2020/12/06 03:09:57;;;;;;;11.10;8.99;;;;;;;2.83;84.20;97623.34;2020949;80;20324;-78
2020/12/06 03:12:58;;;;;;;11.59;8.52;;;;;;;2.84;84.17;97622.47;2021318;80;20323;-78
2020/12/06 03:16:00;;;;;;;11.63;8.76;;;;;;;2.82;84.15;97626.75;2021232;80;20473;-78
2020/12/06 03:19:02;;;;;;;9.46;8.49;;;;;;;2.81;84.16;97622.50;2021411;80;20355;-78
2020/12/06 03:22:04;;;;;;;9.36;8.14;;;;;;;2.80;84.15;97641.28;2022099;80;20328;-78
2020/12/06 03:25:06;;;;;;;11.35;8.77;;;;;;;2.78;84.21;97643.00;2021466;80;20999;-78
2020/12/06 03:28:07;;;;;;;11.45;9.01;;;;;;;2.77;84.27;97626.78;2022018;80;20349;-78
2020/12/06 03:31:09;;;;;;;10.13;8.80;;;;;;;2.78;84.37;97640.44;2020991;80;20324;-78
2020/12/06 03:34:10;;;;;;;9.99;8.59;;;;;;;2.78;84.39;97638.75;2020822;80;20307;-77
2020/12/06 03:37:12;;;;;;;11.75;8.38;;;;;;;2.77;84.35;97642.16;2021132;80;20347;-78
2020/12/06 03:40:14;;;;;;;11.49;9.34;;;;;;;2.73;84.43;97643.88;2021994;80;20839;-78
2020/12/06 03:43:15;;;;;;;11.57;9.07;;;;;;;2.69;84.74;97660.13;2021509;80;20323;-79
2020/12/06 03:46:17;;;;;;;11.19;8.35;;;;;;;2.68;84.83;97676.31;2021091;80;20308;-78
2020/12/06 03:49:18;;;;;;;11.23;9.04;;;;;;;2.68;84.76;97648.13;2021274;80;20300;-78
2020/12/06 03:52:20;;;;;;;10.98;9.04;;;;;;;2.68;84.97;97640.44;2021426;80;20331;-78
2020/12/06 03:55:22;;;;;;;10.96;9.34;;;;;;;2.69;84.93;97639.63;2020739;80;20336;-78
2020/12/06 03:58:23;;;;;;;10.88;9.05;;;;;;;2.69;84.99;97647.31;2021211;80;20810;-78
2020/12/06 04:01:25;;;;;;;10.85;8.57;;;;;;;2.69;85.00;97639.63;2020237;80;20316;-78
2020/12/06 04:04:26;;;;;;;10.01;8.44;;;;;;;2.70;85.02;97637.91;2020021;80;20341;-78
2020/12/06 04:07:28;;;;;;;12.05;9.48;;;;;;;2.72;84.99;97656.69;2019763;80;20760;-78
2020/12/06 04:10:29;;;;;;;11.44;8.50;;;;;;;2.73;84.88;97660.97;2020668;80;20375;-78
2020/12/06 04:13:32;;;;;;;12.14;9.21;;;;;;;2.69;85.03;97652.44;2019388;80;20365;-78
2020/12/06 04:16:34;;;;;;;10.86;8.66;;;;;;;2.70;85.00;97655.84;2020146;80;20324;-78
2020/12/06 04:19:35;;;;;;;11.43;8.77;;;;;;;2.72;85.08;97665.25;2020309;80;20388;-77
2020/12/06 04:22:37;;;;;;;12.06;8.84;;;;;;;2.73;85.13;97664.38;2019585;80;20944;-78
2020/12/06 04:25:39;;;;;;;10.65;8.77;;;;;;;2.74;85.19;97660.09;2020316;80;20536;-78
2020/12/06 04:28:41;;;;;;;10.35;8.23;;;;;;;2.76;85.21;97660.09;2019855;80;20308;-78
2020/12/06 04:31:42;;;;;;;12.48;8.86;;;;;;;2.77;85.16;97657.53;2019850;80;20371;-78
2020/12/06 04:34:45;;;;;;;11.74;8.51;;;;;;;2.73;85.00;97663.53;2019393;80;20304;-78
2020/12/06 04:37:47;;;;;;;11.27;8.49;;;;;;;2.70;85.11;97656.69;2020040;80;20343;-78
2020/12/06 04:40:49;;;;;;;10.05;8.09;;;;;;;2.70;85.16;97649.00;2018847;80;20357;-79
2020/12/06 04:43:51;;;;;;;9.56;8.10;;;;;;;2.70;85.13;97648.16;2019699;80;20858;-78
2020/12/06 04:46:59;;;;;;;9.80;7.84;;;;;;;2.70;85.17;97643.88;2020628;80;20416;-79
2020/12/06 04:50:03;;;;;;;9.61;7.90;;;;;;;2.70;85.07;97635.34;2021032;80;20320;-79
2020/12/06 04:53:06;;;;;;;10.80;8.61;;;;;;;2.64;84.92;97625.94;2020769;80;20323;-78
2020/12/06 04:56:11;;;;;;;9.55;7.84;;;;;;;2.62;85.20;97625.09;2021318;80;20728;-78
2020/12/06 04:59:14;;;;;;;10.13;8.07;;;;;;;2.62;85.24;97614.00;2020220;80;20800;-78
2020/12/06 05:02:19;;;;;;;8.80;7.00;;;;;;;2.63;85.35;97615.69;2020973;80;20373;-78
2020/12/06 05:05:21;;;;;;;10.16;7.45;;;;;;;2.63;85.38;97620.81;2020069;80;20970;-78
2020/12/06 05:08:25;;;;;;;9.48;7.36;;;;;;;2.64;85.39;97623.38;2020928;80;20956;-78
2020/12/06 05:11:27;;;;;;;10.24;8.48;;;;;;;2.63;85.45;97616.56;2019615;80;20393;-78
2020/12/06 05:14:29;;;;;;;9.41;7.66;;;;;;;2.67;85.51;97623.38;2020452;80;20304;-78
2020/12/06 05:17:31;;;;;;;8.82;6.91;;;;;;;2.69;85.57;97610.56;2019854;80;20353;-79
2020/12/06 05:20:33;;;;;;;12.20;8.11;;;;;;;2.69;85.51;97619.13;2020078;80;20355;-79
2020/12/06 05:23:35;;;;;;;10.85;8.26;;;;;;;2.67;85.45;97618.25;2021005;80;20798;-78
2020/12/06 05:26:37;;;;;;;10.73;7.89;;;;;;;2.65;85.37;97619.09;2020303;80;20345;-78
2020/12/06 05:29:40;;;;;;;9.41;7.82;;;;;;;2.66;85.40;97620.81;2020490;80;20316;-78
2020/12/06 05:32:42;;;;;;;10.11;7.78;;;;;;;2.65;85.50;97627.66;2020053;80;20336;-78
2020/12/06 05:35:44;;;;;;;8.88;7.61;;;;;;;2.63;85.50;97628.50;2020147;80;21032;-78
2020/12/06 05:38:46;;;;;;;8.84;7.65;;;;;;;2.62;85.69;97637.91;2020568;80;20771;-78
2020/12/06 05:41:48;;;;;;;8.30;7.28;;;;;;;2.66;85.74;97654.97;2020213;80;20933;-78
2020/12/06 05:44:55;;;;;;;9.43;7.70;;;;;;;2.67;85.70;97651.56;2020328;80;20320;-78
2020/12/06 05:47:57;;;;;;;8.39;6.94;;;;;;;2.64;85.57;97666.09;2020902;80;20381;-78
2020/12/06 05:51:00;;;;;;;9.66;7.21;;;;;;;2.62;85.71;97666.09;2020723;80;20312;-78
2020/12/06 05:54:02;;;;;;;9.95;7.09;;;;;;;2.64;85.80;97671.22;2020213;80;20334;-79
2020/12/06 05:57:04;;;;;;;9.69;7.91;;;;;;;2.66;85.87;97654.13;2020512;80;20417;-79
2020/12/06 06:00:05;;;;;;;10.51;8.05;;;;;;;2.66;86.09;97651.56;2020044;80;20822;-78
2020/12/06 06:03:07;;;;;;;10.21;8.04;;;;;;;2.72;86.08;97646.44;2019774;80;20876;-78
2020/12/06 06:06:20;;;;;;;10.43;8.09;;;;;;;2.75;86.17;97653.28;2020733;80;20332;-78
2020/12/06 06:09:25;;;;;;;9.39;6.71;;;;;;;2.80;86.03;97659.22;2020617;80;20334;-79
2020/12/06 06:12:32;;;;;;;10.04;8.39;;;;;;;2.76;85.86;97653.25;2019948;80;20442;-78
2020/12/06 06:15:35;;;;;;;10.60;8.73;;;;;;;2.78;86.14;97650.69;2020627;80;20387;-78
2020/12/06 06:18:36;;;;;;;10.24;8.00;;;;;;;2.84;86.24;97637.88;2020511;80;20357;-78
2020/12/06 06:21:48;;;;;;;9.75;7.69;;;;;;;2.86;86.10;97654.09;2020963;80;20327;-78
2020/12/06 06:24:52;;;;;;;8.51;7.63;;;;;;;2.86;86.12;97654.09;2021097;80;20361;-78
2020/12/06 06:27:54;;;;;;;10.85;7.91;;;;;;;2.88;86.16;97652.41;2021482;80;20348;-78
2020/12/06 06:30:56;;;;;;;11.11;8.39;;;;;;;2.91;86.13;97647.25;2020817;80;20333;-78
2020/12/06 06:34:00;;;;;;;10.23;7.70;;;;;;;2.93;86.12;97648.97;2021414;80;20336;-78
2020/12/06 06:37:13;;;;;;;8.77;7.68;;;;;;;2.95;85.82;97652.38;2021565;80;20328;-79
2020/12/06 06:40:15;;;;;;;10.49;7.32;;;;;;;2.96;85.76;97663.47;2020926;80;21035;-79
2020/12/06 06:43:17;;;;;;;10.23;7.70;;;;;;;2.99;85.72;97669.44;2025831;80;20347;-78
2020/12/06 06:46:19;;;;;;;9.76;8.04;;;;;;;2.99;85.59;97679.69;2021321;80;20342;-79
2020/12/06 06:49:20;;;;;;;11.24;8.06;;;;;;;2.99;85.55;97684.81;2025947;80;20349;-80
2020/12/06 06:52:23;;;;;;;9.49;7.71;;;;;;;3.01;85.71;97695.94;2029406;80;20312;-81
2020/12/06 06:55:26;;;;;;;10.26;8.29;;;;;;;3.02;85.66;97697.63;2022836;80;20336;-79
2020/12/06 06:58:30;;;;;;;11.60;8.96;;;;;;;3.03;85.57;97707.03;2027640;80;20300;-81
2020/12/06 07:01:47;;;;;;;11.59;9.46;;;;;;;3.02;85.56;97702.75;2027801;80;20349;-81
2020/12/06 07:04:49;;;;;;;13.20;9.89;;;;;;;3.06;85.54;97687.41;2028670;80;20341;-81
2020/12/06 07:07:52;;;;;;;12.68;9.25;;;;;;;3.08;85.55;97695.94;2029452;80;20868;-80
2020/12/06 07:10:54;;;;;;;12.00;8.65;;;;;;;3.13;85.47;97696.78;2024648;80;20664;-79
2020/12/06 07:13:55;;;;;;;11.52;8.43;;;;;;;3.10;85.35;97687.38;2021646;80;20300;-79
2020/12/06 07:16:58;;;;;;;12.81;9.13;;;;;;;3.07;85.38;97677.13;2033144;80;20344;-86
2020/12/06 07:20:01;;;;;;;10.51;8.55;;;;;;;3.04;85.47;97683.09;2026873;80;20323;-79
2020/12/06 07:23:02;;;;;;;10.79;8.81;;;;;;;3.02;85.60;97683.97;2025615;80;20350;-79
2020/12/06 07:26:05;;;;;;;11.66;8.80;;;;;;;3.03;85.57;97690.78;2029140;80;20328;-80
2020/12/06 07:29:07;;;;;;;11.57;8.61;;;;;;;3.00;85.75;97688.25;2030375;80;20327;-79
2020/12/06 07:32:09;;;;;;;11.76;9.44;;;;;;;3.01;85.83;97680.53;2020835;80;20340;-79
2020/12/06 07:35:12;;;;;;;13.31;10.04;;;;;;;3.04;85.88;97684.81;2029560;80;20343;-83
2020/12/06 07:38:15;;;;;;;13.09;9.98;;;;;;;3.06;85.87;97672.88;2068039;69;20347;-81
2020/12/06 07:41:17;;;;;;;13.55;10.26;;;;;;;3.11;86.04;97663.44;2059230;69;20328;-82
2020/12/06 07:44:19;;;;;;;12.93;9.51;;;;;;;3.18;85.90;97670.25;2041634;80;20344;-83
2020/12/06 07:47:22;;;;;;;12.13;9.11;;;;;;;3.19;85.56;97664.25;2032778;80;20355;-82
2020/12/06 07:50:25;;;;;;;12.61;10.14;;;;;;;3.16;85.43;97656.59;2090654;69;20340;-83
2020/12/06 07:53:27;;;;;;;14.10;10.36;;;;;;;3.16;85.53;97650.59;2033496;80;20264;-83
2020/12/06 07:59:39;;;;;;;11.56;9.11;;;;;;;3.15;85.38;97662.56;2168972;69;20415;-82
2020/12/06 08:02:47;;;;;;;12.23;9.11;;;;;;;3.19;85.41;97663.41;2035768;80;20437;-80
2020/12/06 08:05:48;;;;;;;11.38;8.93;;;;;;;3.21;85.38;97661.69;2027348;80;20335;-79
2020/12/06 08:08:52;;;;;;;11.57;9.14;;;;;;;3.23;85.27;97670.22;2030017;80;20442;-79
2020/12/06 08:11:55;;;;;;;10.51;8.32;;;;;;;3.23;85.26;97678.81;2026453;80;21247;-78
2020/12/06 08:15:05;;;;;;;12.30;9.29;;;;;;;3.22;85.30;97674.50;2027826;80;20424;-78
2020/12/06 08:18:13;;;;;;;12.46;9.00;;;;;;;3.25;85.42;97668.53;2029871;80;20345;-81
2020/12/06 08:21:15;;;;;;;11.96;9.50;;;;;;;3.28;85.24;97663.38;2032124;80;20778;-78
2020/12/06 08:24:22;;;;;;;13.07;9.44;;;;;;;3.30;85.31;97666.81;2029288;80;20221;-79
2020/12/06 08:27:23;;;;;;;13.06;9.82;;;;;;;3.38;85.42;97679.59;2028537;80;20739;-80
2020/12/06 08:30:28;;;;;;;12.60;9.75;;;;;;;3.46;85.40;97668.44;2028091;80;20320;-80
2020/12/06 08:33:30;;;;;;;12.02;9.31;;;;;;;3.53;85.33;97670.13;2027488;80;20303;-80
2020/12/06 08:36:31;;;;;;;13.54;10.10;;;;;;;3.57;85.21;97660.69;2031998;80;20341;-80
2020/12/06 08:39:33;;;;;;;12.60;10.30;;;;;;;3.61;85.12;97663.25;2034426;80;20312;-80
2020/12/06 08:42:34;;;;;;;10.79;8.50;;;;;;;3.66;85.12;97652.97;2031984;80;20316;-80
2020/12/06 08:45:36;;;;;;;14.44;9.94;;;;;;;3.74;85.14;97658.03;2034226;80;20328;-80
2020/12/06 08:48:38;;;;;;;12.20;9.48;;;;;;;3.77;84.93;97665.72;2032605;80;20373;-80
2020/12/06 08:51:47;;;;;;;13.24;9.90;;;;;;;3.78;84.96;97672.59;2030809;80;20337;-80
2020/12/06 08:54:50;;;;;;;14.01;10.48;;;;;;;3.78;84.76;97670.88;2032042;80;20307;-80
2020/12/06 08:57:54;;;;;;;14.32;10.18;;;;;;;3.83;84.61;97678.53;2030760;80;20178;-81
2020/12/06 09:01:02;;;;;;;13.94;10.29;;;;;;;3.83;84.50;97681.97;2031393;80;20308;-80
2020/12/06 09:04:03;;;;;;;13.11;10.23;;;;;;;3.86;84.43;97679.38;2033791;80;20341;-69
2020/12/06 09:07:05;;;;;;;17.02;11.50;;;;;;;3.90;84.40;97686.19;2022629;80;20366;-82
2020/12/06 09:10:08;;;;;;;13.41;9.90;;;;;;;3.91;84.31;97687.03;2035407;80;20331;-83
2020/12/06 09:13:09;;;;;;;13.48;11.26;;;;;;;3.90;84.08;97691.31;2034083;80;20320;-82
2020/12/06 09:16:12;;;;;;;15.60;11.11;;;;;;;3.93;84.09;97682.75;2033160;80;20307;-83
2020/12/06 09:19:14;;;;;;;14.04;10.64;;;;;;;3.99;84.13;97676.75;2039507;80;20268;-83
2020/12/06 09:22:15;;;;;;;13.11;10.79;;;;;;;3.99;83.93;97682.72;2033929;80;20355;-82
2020/12/06 09:25:17;;;;;;;13.36;10.82;;;;;;;4.03;83.83;97697.25;2036594;80;20311;-83
2020/12/06 09:28:18;;;;;;;12.43;10.20;;;;;;;4.11;83.90;97689.50;2036203;80;20332;-82
2020/12/06 09:31:24;;;;;;;15.04;11.19;;;;;;;4.18;83.86;97665.50;2035194;80;20308;-81
2020/12/06 09:34:25;;;;;;;15.27;11.02;;;;;;;4.24;83.44;97673.16;2033774;80;20312;-82
2020/12/06 09:37:27;;;;;;;16.14;11.16;;;;;;;4.22;82.93;97675.72;2035439;80;20280;-82
2020/12/06 09:40:28;;;;;;;16.06;11.14;;;;;;;4.22;82.69;97675.72;2035869;80;20288;-83
2020/12/06 09:43:30;;;;;;;16.52;11.50;;;;;;;4.21;82.22;97679.16;2032832;80;20414;-83
2020/12/06 09:46:32;;;;;;;16.88;11.63;;;;;;;4.21;82.18;97686.88;2035722;80;20305;-83
2020/12/06 09:49:33;;;;;;;17.83;11.82;;;;;;;4.23;82.25;97686.84;2034994;80;20294;-82
2020/12/06 09:52:36;;;;;;;23.26;16.04;;;;;;;4.21;82.02;97691.16;2033523;80;20353;-83
2020/12/06 09:55:59;;;;;;;17.36;12.80;;;;;;;4.22;82.12;97700.56;2053310;69;20390;-83
2020/12/06 09:59:01;;;;;;;19.16;12.65;;;;;;;4.29;82.26;97702.22;2040201;80;20353;-85
2020/12/06 10:02:03;;;;;;;16.50;11.29;;;;;;;4.35;82.26;97709.91;2034557;80;20432;-83
2020/12/06 10:05:05;;;;;;;17.96;11.93;;;;;;;4.36;81.78;97703.03;2033564;80;20369;-82
2020/12/06 10:11:26;;;;;;;15.41;11.39;;;;;;;4.34;81.81;97721.03;2053512;69;20364;-80
2020/12/06 10:14:28;;;;;;;18.08;13.16;;;;;;;4.31;81.76;97725.31;2029107;80;20353;-80
2020/12/06 10:17:31;;;;;;;17.21;12.55;;;;;;;4.32;82.03;97725.34;2031771;80;20393;-81
2020/12/06 10:20:33;;;;;;;16.59;12.04;;;;;;;4.31;81.84;97744.19;2030456;80;20308;-80
2020/12/06 10:23:34;;;;;;;17.40;11.85;;;;;;;4.31;81.95;97746.75;2032582;80;20329;-81
2020/12/06 10:26:36;;;;;;;17.52;13.27;;;;;;;4.31;81.82;97733.91;2033866;80;20332;-81
2020/12/06 10:29:38;;;;;;;16.40;12.81;;;;;;;4.36;81.91;97728.72;2033361;80;20311;-80
2020/12/06 10:32:39;;;;;;;18.74;13.65;;;;;;;4.33;81.55;97726.19;2030160;80;20365;-80
2020/12/06 10:35:44;;;;;;;16.21;11.59;;;;;;;4.38;81.76;97721.88;2032559;80;20336;-80
2020/12/06 10:38:45;;;;;;;15.31;11.20;;;;;;;4.39;81.78;97706.44;2031094;80;20288;-81
2020/12/06 10:41:48;;;;;;;15.56;11.29;;;;;;;4.44;81.84;97701.25;2031570;80;20345;-81
2020/12/06 10:44:50;;;;;;;17.05;12.13;;;;;;;4.53;81.86;97683.22;2033418;80;20391;-80
2020/12/06 10:47:51;;;;;;;15.24;11.46;;;;;;;4.63;81.90;97683.97;2033985;80;20283;-81
2020/12/06 10:50:54;;;;;;;16.31;11.68;;;;;;;4.71;81.70;97684.78;2031516;80;20304;-80
2020/12/06 10:53:55;;;;;;;15.00;11.49;;;;;;;4.77;81.45;97677.00;2032784;80;20328;-82
2020/12/06 10:57:35;;;;;;;14.50;11.00;;;;;;;4.84;81.07;97669.19;2034143;80;20375;-80
2020/12/06 11:00:36;;;;;;;14.20;10.00;;;;;;;4.88;80.53;97657.19;2031454;80;20333;-80
2020/12/06 11:03:48;;;;;;;13.92;10.90;;;;;;;4.90;80.27;97667.47;2030027;80;20171;-81
2020/12/06 11:06:49;;;;;;;14.31;10.95;;;;;;;4.95;80.16;97683.69;2029384;80;20396;-81
2020/12/06 11:09:54;;;;;;;15.19;11.35;;;;;;;4.96;80.16;97682.81;2028615;80;20407;-82
2020/12/06 11:12:56;;;;;;;13.39;10.60;;;;;;;4.96;80.05;97682.81;2025457;80;20334;-79
2020/12/06 11:15:59;;;;;;;14.50;11.25;;;;;;;4.97;79.86;97687.94;2024103;80;20304;-80
2020/12/06 11:19:00;;;;;;;14.59;11.19;;;;;;;4.99;79.63;97690.50;2022330;80;20393;-80
2020/12/06 11:22:02;;;;;;;15.21;10.77;;;;;;;5.03;79.76;97693.06;2024898;80;20373;-79
2020/12/06 11:25:04;;;;;;;14.14;11.35;;;;;;;5.07;79.91;97681.84;2030538;80;20352;-80
2020/12/06 11:28:05;;;;;;;20.54;11.23;;;;;;;5.16;79.77;97683.47;2027225;80;20327;-81
2020/12/06 11:31:08;;;;;;;27.38;13.74;;;;;;;5.19;79.54;97690.28;2030377;80;20327;-79
2020/12/06 11:34:10;;;;;;;19.64;12.02;;;;;;;5.30;79.59;97696.19;2032898;80;20371;-82
2020/12/06 11:37:12;;;;;;;17.21;12.49;;;;;;;5.35;78.85;97697.00;2031977;80;20328;-81
2020/12/06 11:40:14;;;;;;;17.05;12.10;;;;;;;5.31;78.65;97701.31;2031268;80;20337;-78
2020/12/06 11:43:15;;;;;;;17.33;12.15;;;;;;;5.29;78.24;97707.34;2039244;80;20315;-82
2020/12/06 11:46:17;;;;;;;17.00;11.99;;;;;;;5.31;78.37;97697.91;2035541;80;20296;-80
2020/12/06 11:49:18;;;;;;;17.17;12.10;;;;;;;5.26;77.79;97697.94;2035030;80;20311;-80
2020/12/06 11:52:20;;;;;;;16.45;12.35;;;;;;;5.28;77.94;97698.78;2035264;80;20356;-81
2020/12/06 11:55:21;;;;;;;18.59;13.05;;;;;;;5.23;77.73;97702.28;2033908;80;20328;-85
2020/12/06 11:58:23;;;;;;;23.42;13.86;;;;;;;5.28;78.19;97701.34;2034411;80;20324;-81
2020/12/06 12:01:25;;;;;;;18.58;12.73;;;;;;;5.31;78.16;97695.31;2031575;80;20344;-80
2020/12/06 12:04:27;;;;;;;19.24;12.95;;;;;;;5.34;78.07;97683.28;2031187;80;20307;-80
2020/12/06 12:07:29;;;;;;;18.76;13.44;;;;;;;5.38;77.98;97684.09;2032616;80;20316;-81
2020/12/06 12:10:32;;;;;;;19.31;13.24;;;;;;;5.38;78.06;97671.22;2026567;80;20921;-76
2020/12/06 12:13:34;;;;;;;17.73;12.05;;;;;;;5.47;78.02;97671.13;2026340;80;20353;-79
2020/12/06 12:16:36;;;;;;;17.98;12.19;;;;;;;5.52;77.76;97666.75;2029212;80;20517;-80
2020/12/06 12:19:37;;;;;;;27.99;17.54;;;;;;;5.56;77.80;97673.56;2031684;80;21122;-81
2020/12/06 12:22:39;;;;;;;18.79;12.99;;;;;;;5.52;77.22;97674.47;2033112;80;20341;-80
2020/12/06 12:25:40;;;;;;;19.44;13.27;;;;;;;5.49;77.07;97682.25;2033092;80;20349;-81
2020/12/06 12:28:42;;;;;;;18.36;12.48;;;;;;;5.47;77.18;97687.41;2035093;80;20316;-80
2020/12/06 12:31:45;;;;;;;20.38;13.93;;;;;;;5.40;77.24;97690.94;2033302;80;20347;-81
2020/12/06 12:34:46;;;;;;;21.73;14.15;;;;;;;5.39;77.32;97696.09;2035165;80;20342;-80
2020/12/06 12:37:48;;;;;;;19.88;13.44;;;;;;;5.45;77.67;97696.88;2031588;80;20324;-80
2020/12/06 12:40:49;;;;;;;18.21;13.19;;;;;;;5.44;77.36;97692.59;2031110;80;20328;-81
2020/12/06 12:43:51;;;;;;;21.42;13.73;;;;;;;5.39;77.40;97678.94;2030317;80;21204;-80
2020/12/06 12:46:57;;;;;;;20.16;14.43;;;;;;;5.43;77.78;97665.16;2030332;80;20415;-81
2020/12/06 12:49:59;;;;;;;19.75;12.99;;;;;;;5.39;77.38;97655.78;2030281;80;20469;-81
2020/12/06 12:53:01;;;;;;;22.95;14.51;;;;;;;5.41;77.42;97658.34;2031497;80;20358;-80
2020/12/06 12:56:03;;;;;;;22.42;14.99;;;;;;;5.38;77.46;97659.19;2031398;80;20397;-81
2020/12/06 12:59:05;;;;;;;20.88;14.80;;;;;;;5.44;77.62;97654.00;2032515;80;20331;-81
2020/12/06 13:02:25;;;;;;;21.85;14.26;;;;;;;5.47;77.45;97653.97;2031673;80;20406;-80
2020/12/06 13:12:58;;;;;;;18.15;12.39;;;;;;;5.33;76.71;97654.97;2034794;70;20360;-80
2020/12/06 13:16:00;;;;;;;19.99;13.91;;;;;;;5.31;77.18;97654.16;2031814;80;20320;-81
2020/12/06 13:19:02;;;;;;;18.52;13.81;;;;;;;5.26;77.23;97649.06;2033505;80;20709;-82
2020/12/06 13:22:04;;;;;;;18.15;13.01;;;;;;;5.21;77.38;97635.41;2034151;80;20344;-81
2020/12/06 13:25:18;;;;;;;21.81;13.50;;;;;;;5.27;77.90;97634.47;2034626;80;20312;-80
2020/12/06 13:28:19;;;;;;;19.54;14.23;;;;;;;5.34;77.91;97636.09;2032807;80;20320;-80
2020/12/06 13:31:21;;;;;;;20.60;14.30;;;;;;;5.37;77.78;97636.91;2035069;80;20346;-81
2020/12/06 13:34:23;;;;;;;26.21;16.60;;;;;;;5.39;77.88;97635.19;2035748;80;20473;-80
2020/12/06 13:37:25;;;;;;;31.90;20.40;;;;;;;5.42;78.09;97635.16;2032174;80;20374;-81
2020/12/06 13:40:26;;;;;;;22.96;15.80;;;;;;;5.43;77.89;97639.44;2032645;80;20341;-81
2020/12/06 13:43:28;;;;;;;21.21;14.27;;;;;;;5.41;77.77;97641.16;2033288;80;20347;-81
2020/12/06 13:46:30;;;;;;;20.56;14.34;;;;;;;5.44;77.73;97641.13;2036061;80;20374;-82
2020/12/06 13:49:32;;;;;;;102.44;43.58;;;;;;;5.47;77.67;97620.50;2034637;80;20304;-84
2020/12/06 13:52:33;;;;;;;48.56;25.98;;;;;;;5.39;77.21;97624.06;2032615;80;20390;-83
2020/12/06 13:55:37;;;;;;;28.90;18.49;;;;;;;5.33;77.26;97631.81;2036081;80;20323;-83
2020/12/06 13:58:43;;;;;;;24.59;16.85;;;;;;;5.28;77.22;97625.88;2036782;80;20285;-82
2020/12/06 14:01:48;;;;;;;24.76;16.58;;;;;;;5.29;77.49;97610.44;2035643;80;20316;-84
2020/12/06 14:04:49;;;;;;;20.35;13.90;;;;;;;5.31;77.79;97597.53;2033579;80;20334;-82
2020/12/06 14:07:51;;;;;;;25.19;14.19;;;;;;;5.30;77.72;97588.13;2036465;80;20308;-82
2020/12/06 14:10:53;;;;;;;21.73;14.20;;;;;;;5.33;77.68;97585.50;2032096;80;20323;-81
2020/12/06 14:13:54;;;;;;;20.73;13.44;;;;;;;5.30;77.53;97575.25;2031841;80;20315;-81
2020/12/06 14:16:56;;;;;;;20.26;13.43;;;;;;;5.26;77.49;97577.03;2031511;80;20312;-82
2020/12/06 14:19:58;;;;;;;20.80;12.91;;;;;;;5.24;77.95;97572.78;2034122;80;20320;-82
2020/12/06 14:23:01;;;;;;;17.25;12.09;;;;;;;5.25;78.10;97580.47;2030800;80;20312;-83
2020/12/06 14:26:02;;;;;;;17.16;11.48;;;;;;;5.22;78.24;97589.94;2033364;80;20304;-80
2020/12/06 14:29:04;;;;;;;15.79;11.86;;;;;;;5.14;77.81;97600.31;2031012;80;20312;-82
2020/12/06 14:32:06;;;;;;;16.95;11.95;;;;;;;5.11;77.76;97600.34;2035631;80;20425;-81